createdAt,value
2019-03-21T00:00:22.294Z,4.83
2019-03-21T00:02:50.719Z,4.94
2019-03-21T00:05:20.043Z,5.03
2019-03-21T00:07:48.385Z,4.79
2019-03-21T00:10:31.691Z,4.73
2019-03-21T00:13:00.042Z,4.80
2019-03-21T00:15:37.594Z,4.91
2019-03-21T00:18:09.203Z,4.81
2019-03-21T00:20:37.644Z,4.88
2019-03-21T00:23:05.991Z,5.02
2019-03-21T00:25:34.363Z,4.93
2019-03-21T00:28:02.720Z,4.96
2019-03-21T00:30:31.166Z,4.80
2019-03-21T00:32:59.513Z,4.67
2019-03-21T00:35:27.895Z,4.59
2019-03-21T00:37:56.242Z,4.57
2019-03-21T00:40:27.626Z,4.72
2019-03-21T00:42:56.343Z,4.64
2019-03-21T00:45:24.745Z,4.65
2019-03-21T00:47:53.156Z,4.49
2019-03-21T00:50:29.674Z,4.57
2019-03-21T00:52:58.024Z,4.73
2019-03-21T00:55:29.498Z,4.47
2019-03-21T00:57:58.695Z,4.51
2019-03-21T01:00:36.019Z,4.47
2019-03-21T01:03:04.962Z,4.44
2019-03-21T01:05:33.409Z,4.52
2019-03-21T01:08:01.756Z,4.44
2019-03-21T01:10:31.776Z,4.34
2019-03-21T01:13:00.196Z,4.29
2019-03-21T01:15:28.637Z,4.28
2019-03-21T01:17:57.050Z,4.02
2019-03-21T01:20:25.509Z,4.16
2019-03-21T01:22:53.857Z,4.37
2019-03-21T01:25:31.346Z,4.23
2019-03-21T01:27:59.701Z,4.46
2019-03-21T01:30:28.051Z,4.33
2019-03-21T01:32:56.791Z,4.16
2019-03-21T01:35:25.131Z,4.31
2019-03-21T01:37:53.509Z,4.30
2019-03-21T01:40:27.829Z,4.22
2019-03-21T01:42:56.193Z,4.06
2019-03-21T01:45:25.877Z,4.00
2019-03-21T01:47:57.190Z,3.88
2019-03-21T01:50:39.772Z,3.76
2019-03-21T01:53:08.147Z,3.93
2019-03-21T01:55:36.493Z,3.69
2019-03-21T01:58:05.206Z,3.77
2019-03-21T02:00:39.232Z,3.78
2019-03-21T02:03:07.679Z,3.69
2019-03-21T02:05:36.019Z,3.82
2019-03-21T02:08:04.740Z,3.96
2019-03-21T02:10:33.361Z,3.93
2019-03-21T02:13:01.746Z,4.03
2019-03-21T02:15:30.160Z,3.99
2019-03-21T02:17:58.534Z,4.07
2019-03-21T02:20:26.987Z,3.81
2019-03-21T02:22:55.326Z,3.79
2019-03-21T02:25:31.432Z,3.55
2019-03-21T02:27:59.984Z,3.57
2019-03-21T02:30:37.214Z,3.75
2019-03-21T02:33:20.686Z,3.66
2019-03-21T02:35:49.026Z,3.58
2019-03-21T02:38:17.417Z,3.47
2019-03-21T02:40:46.902Z,3.60
2019-03-21T02:43:15.279Z,3.45
2019-03-21T02:45:43.627Z,3.68
2019-03-21T02:48:12.001Z,3.70
2019-03-21T02:50:46.454Z,3.64
2019-03-21T02:54:11.498Z,3.77
2019-03-21T02:56:39.911Z,3.75
2019-03-21T02:59:08.285Z,3.71
2019-03-21T03:01:36.630Z,3.66
2019-03-21T03:04:05.880Z,3.53
2019-03-21T03:06:34.225Z,3.60
2019-03-21T03:09:02.910Z,3.54
2019-03-21T03:11:31.346Z,3.38
2019-03-21T03:13:59.741Z,3.55
2019-03-21T03:16:28.091Z,3.49
2019-03-21T03:18:56.482Z,3.48
2019-03-21T03:21:24.805Z,3.61
2019-03-21T03:23:53.177Z,3.60
2019-03-21T03:26:21.519Z,3.37
2019-03-21T03:28:49.902Z,3.35
2019-03-21T03:31:18.267Z,3.26
2019-03-21T03:33:46.638Z,3.55
2019-03-21T03:36:16.436Z,3.38
2019-03-21T03:38:44.806Z,3.24
2019-03-21T03:41:16.261Z,3.34
2019-03-21T03:43:44.600Z,3.52
2019-03-21T03:46:12.939Z,3.50
2019-03-21T03:48:41.321Z,3.43
2019-03-21T03:51:09.667Z,3.41
2019-03-21T03:53:38.053Z,3.37
2019-03-21T03:56:06.635Z,3.40
2019-03-21T03:58:38.193Z,3.28
2019-03-21T04:01:06.610Z,3.24
2019-03-21T04:03:35.158Z,3.27
2019-03-21T04:06:03.741Z,3.33
2019-03-21T04:08:32.110Z,3.43
2019-03-21T04:11:00.533Z,3.30
2019-03-21T04:13:28.973Z,3.16
2019-03-21T04:15:57.320Z,3.17
2019-03-21T04:18:26.064Z,3.11
2019-03-21T04:21:00.627Z,2.82
2019-03-21T04:23:29.008Z,2.69
2019-03-21T04:26:00.746Z,3.17
2019-03-21T04:28:29.192Z,3.11
2019-03-21T04:30:57.639Z,2.81
2019-03-21T04:33:26.120Z,2.66
2019-03-21T04:35:54.526Z,2.76
2019-03-21T04:38:23.315Z,2.95
2019-03-21T04:40:51.656Z,2.92
2019-03-21T04:43:20.361Z,2.93
2019-03-21T04:45:48.706Z,2.72
2019-03-21T04:48:17.152Z,2.64
2019-03-21T04:50:45.496Z,2.69
2019-03-21T04:53:13.867Z,2.77
2019-03-21T04:55:42.213Z,2.83
2019-03-21T04:58:10.610Z,2.93
2019-03-21T05:00:44.858Z,2.63
2019-03-21T05:03:15.639Z,2.85
2019-03-21T05:05:44.048Z,2.86
2019-03-21T05:08:12.434Z,2.99
2019-03-21T05:10:40.770Z,3.10
2019-03-21T05:13:09.154Z,3.10
2019-03-21T05:15:43.356Z,2.91
2019-03-21T05:18:18.008Z,2.89
2019-03-21T05:20:46.371Z,2.92
2019-03-21T05:23:14.739Z,2.68
2019-03-21T05:25:43.088Z,2.88
2019-03-21T05:28:11.467Z,2.70
2019-03-21T05:30:48.889Z,2.88
2019-03-21T05:33:17.271Z,2.93
2019-03-21T05:35:45.629Z,2.96
2019-03-21T05:38:14.106Z,2.77
2019-03-21T05:40:42.493Z,2.94
2019-03-21T05:43:20.361Z,2.77
2019-03-21T05:45:48.742Z,2.84
2019-03-21T05:48:17.087Z,2.97
2019-03-21T05:50:45.463Z,2.98
2019-03-21T05:53:13.813Z,2.98
2019-03-21T05:55:42.189Z,2.83
2019-03-21T05:58:10.536Z,2.92
2019-03-21T06:00:42.193Z,2.93
2019-03-21T06:03:22.281Z,2.93
2019-03-21T06:06:02.927Z,2.89
2019-03-21T06:08:34.411Z,3.03
2019-03-21T06:11:05.312Z,3.15
2019-03-21T06:13:33.932Z,2.89
2019-03-21T06:16:09.812Z,3.13
2019-03-21T06:19:01.975Z,3.36
2019-03-21T06:21:51.911Z,3.32
2019-03-21T06:24:38.419Z,3.23
2019-03-21T06:27:28.408Z,3.35
2019-03-21T06:29:56.919Z,3.36
2019-03-21T06:32:26.812Z,3.52
2019-03-21T06:34:57.571Z,3.52
2019-03-21T06:37:28.633Z,3.47
2019-03-21T06:39:56.729Z,3.50
2019-03-21T06:42:25.144Z,3.67
2019-03-21T06:44:53.593Z,3.67
2019-03-21T06:47:21.941Z,3.79
2019-03-21T06:49:50.315Z,3.82
2019-03-21T06:52:18.659Z,3.84
2019-03-21T06:54:47.041Z,3.88
2019-03-21T06:57:17.024Z,3.92
2019-03-21T06:59:45.369Z,4.04
2019-03-21T07:02:13.811Z,3.97
2019-03-21T07:04:42.228Z,4.07
2019-03-21T07:07:10.611Z,4.13
2019-03-21T07:09:38.963Z,4.15
2019-03-21T07:12:07.407Z,4.21
2019-03-21T07:14:35.758Z,4.24
2019-03-21T07:17:04.138Z,4.35
2019-03-21T07:19:34.106Z,4.44
2019-03-21T07:22:02.637Z,4.44
2019-03-21T07:24:31.013Z,4.52
2019-03-21T07:26:59.422Z,4.57
2019-03-21T07:29:27.771Z,4.69
2019-03-21T07:31:56.142Z,4.85
2019-03-21T07:34:24.490Z,4.86
2019-03-21T07:36:52.872Z,4.93
2019-03-21T07:39:21.212Z,5.05
2019-03-21T07:41:49.590Z,5.06
2019-03-21T07:44:17.937Z,5.23
2019-03-21T07:46:46.381Z,5.35
2019-03-21T07:49:14.734Z,5.45
2019-03-21T07:51:45.171Z,5.52
2019-03-21T07:54:13.177Z,5.55
2019-03-21T07:56:41.552Z,5.63
2019-03-21T07:59:09.902Z,5.71
2019-03-21T08:01:39.267Z,5.77
2019-03-21T08:04:07.733Z,5.83
2019-03-21T08:06:36.107Z,5.89
2019-03-21T08:09:06.928Z,5.99
2019-03-21T08:11:35.789Z,6.01
2019-03-21T08:14:04.567Z,6.12
2019-03-21T08:16:33.620Z,6.22
2019-03-21T08:19:02.203Z,6.33
2019-03-21T08:21:30.653Z,6.40
2019-03-21T08:23:59.328Z,6.40
2019-03-21T08:26:27.774Z,6.55
2019-03-21T08:28:56.189Z,6.62
2019-03-21T08:31:24.568Z,6.69
2019-03-21T08:33:52.982Z,6.80
2019-03-21T08:36:21.389Z,6.78
2019-03-21T08:38:49.830Z,6.90
2019-03-21T08:41:18.178Z,6.92
2019-03-21T08:43:46.620Z,6.94
2019-03-21T08:46:15.026Z,7.01
2019-03-21T08:48:43.817Z,7.00
2019-03-21T08:51:12.232Z,7.02
2019-03-21T08:53:40.604Z,7.13
2019-03-21T08:56:09.085Z,7.42
2019-03-21T08:58:37.532Z,7.31
2019-03-21T09:01:07.483Z,7.29
2019-03-21T09:03:36.375Z,7.25
2019-03-21T09:06:05.656Z,7.51
2019-03-21T09:08:34.096Z,7.62
2019-03-21T09:11:02.439Z,7.81
2019-03-21T09:13:30.809Z,7.82
2019-03-21T09:15:59.424Z,7.75
2019-03-21T09:18:27.797Z,7.71
2019-03-21T09:20:56.136Z,7.68
2019-03-21T09:23:24.506Z,7.78
2019-03-21T09:25:52.954Z,8.20
2019-03-21T09:28:21.761Z,8.18
2019-03-21T09:30:50.770Z,7.98
2019-03-21T09:33:19.335Z,8.51
2019-03-21T09:35:47.674Z,8.39
2019-03-21T09:38:16.050Z,8.31
2019-03-21T09:40:44.464Z,8.52
2019-03-21T09:43:12.839Z,8.41
2019-03-21T09:45:41.246Z,8.52
2019-03-21T09:48:09.851Z,8.53
2019-03-21T09:50:38.265Z,8.41
2019-03-21T09:53:06.705Z,8.48
2019-03-21T09:55:35.124Z,8.56
2019-03-21T09:58:05.198Z,8.79
2019-03-21T10:00:35.177Z,8.62
2019-03-21T10:03:04.684Z,8.73
2019-03-21T10:05:33.865Z,9.17
2019-03-21T10:08:02.381Z,9.11
2019-03-21T10:10:32.230Z,9.12
2019-03-21T10:13:00.710Z,9.19
2019-03-21T10:15:29.220Z,9.30
2019-03-21T10:17:57.629Z,9.23
2019-03-21T10:20:26.075Z,9.26
2019-03-21T10:22:54.413Z,9.17
2019-03-21T10:25:22.784Z,9.21
2019-03-21T10:27:51.122Z,9.44
2019-03-21T10:30:34.566Z,9.23
2019-03-21T10:33:04.141Z,9.16
2019-03-21T10:35:32.867Z,9.22
2019-03-21T10:38:01.480Z,9.29
2019-03-21T10:40:29.852Z,9.35
2019-03-21T10:42:58.268Z,9.46
2019-03-21T10:45:26.714Z,9.29
2019-03-21T10:47:55.295Z,9.17
2019-03-21T10:50:37.708Z,9.38
2019-03-21T10:53:06.695Z,9.70
2019-03-21T10:55:35.242Z,9.46
2019-03-21T10:58:04.125Z,9.51
2019-03-21T11:00:32.503Z,9.72
2019-03-21T11:03:01.134Z,9.76
2019-03-21T11:05:29.579Z,9.92
2019-03-21T11:07:57.915Z,9.84
2019-03-21T11:10:26.290Z,9.75
2019-03-21T11:12:54.642Z,9.73
2019-03-21T11:15:23.082Z,9.87
2019-03-21T11:17:51.893Z,9.89
2019-03-21T11:20:31.390Z,9.75
2019-03-21T11:22:59.802Z,9.58
2019-03-21T11:25:28.248Z,9.62
2019-03-21T11:27:56.656Z,9.83
2019-03-21T11:30:35.677Z,10.21
2019-03-21T11:33:04.572Z,10.01
2019-03-21T11:35:33.313Z,10.14
2019-03-21T11:38:01.827Z,10.40
2019-03-21T11:40:30.454Z,10.25
2019-03-21T11:42:59.220Z,10.33
2019-03-21T11:45:27.734Z,10.05
2019-03-21T11:47:56.090Z,10.41
2019-03-21T11:50:24.530Z,10.28
2019-03-21T11:52:52.871Z,10.31
2019-03-21T11:55:21.501Z,10.39
2019-03-21T11:57:49.987Z,10.16
2019-03-21T12:00:18.806Z,10.70
2019-03-21T12:02:47.159Z,10.27
2019-03-21T12:05:15.636Z,10.49
2019-03-21T12:07:44.022Z,10.44
2019-03-21T12:10:13.149Z,10.46
2019-03-21T12:12:41.592Z,10.67
2019-03-21T12:15:11.716Z,11.29
2019-03-21T12:17:40.056Z,10.70
2019-03-21T12:20:10.788Z,10.52
2019-03-21T12:22:39.880Z,11.06
2019-03-21T12:25:08.934Z,10.67
2019-03-21T12:27:37.278Z,10.30
2019-03-21T12:30:08.820Z,10.87
2019-03-21T12:32:37.165Z,10.65
2019-03-21T12:35:07.379Z,10.57
2019-03-21T12:37:35.735Z,10.37
2019-03-21T12:40:06.826Z,10.86
2019-03-21T12:42:35.207Z,10.63
2019-03-21T12:45:05.599Z,10.71
2019-03-21T12:47:33.984Z,10.79
2019-03-21T12:50:02.331Z,11.20
2019-03-21T12:52:41.027Z,11.13
2019-03-21T12:55:01.160Z,10.86
2019-03-21T12:57:29.535Z,10.88
2019-03-21T12:59:57.893Z,11.13
2019-03-21T13:02:32.204Z,10.99
2019-03-21T13:04:56.337Z,10.86
2019-03-21T13:07:24.711Z,10.85
2019-03-21T13:09:53.057Z,11.00
2019-03-21T13:12:21.502Z,11.36
2019-03-21T13:14:49.846Z,11.25
2019-03-21T13:17:18.220Z,11.86
2019-03-21T13:19:46.642Z,11.58
2019-03-21T13:22:15.020Z,11.75
2019-03-21T13:24:43.360Z,11.20
2019-03-21T13:27:11.733Z,11.35
2019-03-21T13:29:40.078Z,11.40
2019-03-21T13:32:08.452Z,11.42
2019-03-21T13:34:36.880Z,11.22
2019-03-21T13:37:05.325Z,11.01
2019-03-21T13:39:33.673Z,11.51
2019-03-21T13:42:02.050Z,11.23
2019-03-21T13:44:33.863Z,11.54
2019-03-21T13:47:04.379Z,12.23
2019-03-21T13:49:33.086Z,11.64
2019-03-21T13:52:01.693Z,11.81
2019-03-21T13:54:32.195Z,12.04
2019-03-21T13:57:02.079Z,11.70
2019-03-21T13:59:31.278Z,11.59
2019-03-21T14:02:00.118Z,11.97
2019-03-21T14:04:28.536Z,11.55
2019-03-21T14:06:57.264Z,12.00
2019-03-21T14:09:26.846Z,12.15
2019-03-21T14:11:55.300Z,12.18
2019-03-21T14:14:24.170Z,11.73
2019-03-21T14:16:53.177Z,12.26
2019-03-21T14:19:21.743Z,12.19
2019-03-21T14:21:50.480Z,12.36
2019-03-21T14:24:19.452Z,12.05
2019-03-21T14:26:52.849Z,11.86
2019-03-21T14:29:21.194Z,12.16
2019-03-21T14:31:50.171Z,12.38
2019-03-21T14:34:18.916Z,12.43
2019-03-21T14:36:48.304Z,12.51
2019-03-21T14:39:16.955Z,11.97
2019-03-21T14:41:45.543Z,12.17
2019-03-21T14:44:18.272Z,12.20
2019-03-21T14:46:48.714Z,12.64
2019-03-21T14:49:17.428Z,12.06
2019-03-21T14:51:45.801Z,12.54
2019-03-21T14:54:16.320Z,12.35
2019-03-21T14:56:45.091Z,12.33
2019-03-21T14:59:13.751Z,12.31
2019-03-21T15:01:44.032Z,12.41
2019-03-21T15:04:13.006Z,12.34
2019-03-21T15:06:41.533Z,12.56
2019-03-21T15:09:11.716Z,12.64
2019-03-21T15:11:42.396Z,12.91
2019-03-21T15:14:10.855Z,12.55
2019-03-21T15:16:40.468Z,12.68
2019-03-21T15:19:08.878Z,12.80
2019-03-21T15:21:37.688Z,12.86
2019-03-21T15:24:06.547Z,12.88
2019-03-21T15:26:36.315Z,12.54
2019-03-21T15:29:06.240Z,12.57
2019-03-21T15:31:35.180Z,12.57
2019-03-21T15:34:03.741Z,12.86
2019-03-21T15:36:32.465Z,13.21
2019-03-21T15:39:00.885Z,13.34
2019-03-21T15:41:29.578Z,13.18
2019-03-21T15:43:58.809Z,13.41
2019-03-21T15:46:27.639Z,12.98
2019-03-21T15:48:56.461Z,13.17
2019-03-21T15:51:27.593Z,12.81
2019-03-21T15:53:56.727Z,13.02
2019-03-21T15:56:28.688Z,13.01
2019-03-21T15:58:57.267Z,13.04
2019-03-21T16:01:26.186Z,13.09
2019-03-21T16:03:55.640Z,13.57
2019-03-21T16:06:23.991Z,13.51
2019-03-21T16:08:52.616Z,13.19
2019-03-21T16:11:21.122Z,12.98
2019-03-21T16:13:52.298Z,13.19
2019-03-21T16:16:21.612Z,12.90
2019-03-21T16:18:50.003Z,13.06
2019-03-21T16:21:20.350Z,13.11
2019-03-21T16:23:49.251Z,13.27
2019-03-21T16:26:17.670Z,13.06
2019-03-21T16:28:46.702Z,13.49
2019-03-21T16:31:18.583Z,13.88
2019-03-21T16:33:47.074Z,13.70
2019-03-21T16:36:15.731Z,13.04
2019-03-21T16:38:44.612Z,12.90
2019-03-21T16:41:12.955Z,12.82
2019-03-21T16:43:42.117Z,12.68
2019-03-21T16:46:10.473Z,12.71
2019-03-21T16:48:38.926Z,12.79
2019-03-21T16:51:07.280Z,12.63
2019-03-21T16:53:35.656Z,12.59
2019-03-21T16:56:04.068Z,12.62
2019-03-21T16:58:32.445Z,12.50
2019-03-21T17:01:00.791Z,12.54
2019-03-21T17:03:29.179Z,12.60
2019-03-21T17:05:57.519Z,12.54
2019-03-21T17:08:25.918Z,12.72
2019-03-21T17:10:54.419Z,12.42
2019-03-21T17:13:23.798Z,12.37
2019-03-21T17:15:53.120Z,12.37
2019-03-21T17:18:21.564Z,12.18
2019-03-21T17:20:49.934Z,12.39
2019-03-21T17:23:18.326Z,12.53
2019-03-21T17:25:46.749Z,12.24
2019-03-21T17:28:15.138Z,12.01
2019-03-21T17:30:43.495Z,11.90
2019-03-21T17:33:11.910Z,11.88
2019-03-21T17:35:40.326Z,11.79
2019-03-21T17:38:08.709Z,11.68
2019-03-21T17:40:37.137Z,11.51
2019-03-21T17:43:05.601Z,11.59
2019-03-21T17:45:33.954Z,11.38
2019-03-21T17:48:02.341Z,11.32
2019-03-21T17:50:30.759Z,11.26
2019-03-21T17:52:59.217Z,11.10
2019-03-21T17:55:27.589Z,11.11
2019-03-21T17:57:55.985Z,11.05
2019-03-21T18:00:35.115Z,11.02
2019-03-21T18:03:04.295Z,10.98
2019-03-21T18:05:33.124Z,10.93
2019-03-21T18:08:02.285Z,10.92
2019-03-21T18:10:35.341Z,10.97
2019-03-21T18:13:04.481Z,10.89
2019-03-21T18:15:33.743Z,10.78
2019-03-21T18:18:02.695Z,10.67
2019-03-21T18:20:39.076Z,10.57
2019-03-21T18:23:08.836Z,10.48
2019-03-21T18:25:37.455Z,10.40
2019-03-21T18:28:08.895Z,10.32
2019-03-21T18:30:38.157Z,10.29
2019-03-21T18:33:07.114Z,10.23
2019-03-21T18:35:35.510Z,10.18
2019-03-21T18:38:04.504Z,10.12
2019-03-21T18:40:33.316Z,10.09
2019-03-21T18:43:04.338Z,10.04
2019-03-21T18:45:35.609Z,9.93
2019-03-21T18:48:04.168Z,9.94
2019-03-21T18:50:32.662Z,9.93
2019-03-21T18:53:01.274Z,9.89
2019-03-21T18:55:30.631Z,9.87
2019-03-21T18:57:59.440Z,9.83
2019-03-21T19:00:31.310Z,9.73
2019-03-21T19:03:00.902Z,9.65
2019-03-21T19:05:30.336Z,9.61
2019-03-21T19:07:58.899Z,9.55
2019-03-21T19:10:31.995Z,9.54
2019-03-21T19:13:00.716Z,9.47
2019-03-21T19:15:29.085Z,9.49
2019-03-21T19:17:57.543Z,9.41
2019-03-21T19:20:26.097Z,9.38
2019-03-21T19:22:54.772Z,9.42
2019-03-21T19:25:23.126Z,9.42
2019-03-21T19:27:51.650Z,9.35
2019-03-21T19:30:23.431Z,9.29
2019-03-21T19:32:51.889Z,9.24
2019-03-21T19:35:20.316Z,9.21
2019-03-21T19:37:49.204Z,9.16
2019-03-21T19:40:19.014Z,9.08
2019-03-21T19:42:47.935Z,9.02
2019-03-21T19:45:17.832Z,9.06
2019-03-21T19:47:46.572Z,9.02
2019-03-21T19:50:17.010Z,9.04
2019-03-21T19:52:46.538Z,9.01
2019-03-21T19:55:15.735Z,8.93
2019-03-21T19:57:44.565Z,8.80
2019-03-21T20:00:23.723Z,8.71
2019-03-21T20:02:52.139Z,8.77
2019-03-21T20:05:20.656Z,8.69
2019-03-21T20:07:49.179Z,8.64
2019-03-21T20:10:19.903Z,8.61
2019-03-21T20:12:49.011Z,8.56
2019-03-21T20:15:21.420Z,8.59
2019-03-21T20:17:50.226Z,8.53
2019-03-21T20:20:19.857Z,8.49
2019-03-21T20:22:49.365Z,8.47
2019-03-21T20:25:18.272Z,8.40
2019-03-21T20:27:54.184Z,8.35
2019-03-21T20:30:23.100Z,8.29
2019-03-21T20:32:51.670Z,8.35
2019-03-21T20:35:20.195Z,8.42
2019-03-21T20:37:51.182Z,8.29
2019-03-21T20:40:20.209Z,8.20
2019-03-21T20:42:48.824Z,8.25
2019-03-21T20:45:22.194Z,8.17
2019-03-21T20:47:51.044Z,8.13
2019-03-21T20:50:19.933Z,7.94
2019-03-21T20:52:50.821Z,7.96
2019-03-21T20:55:19.273Z,7.77
2019-03-21T20:57:48.655Z,7.49
2019-03-21T21:00:24.511Z,7.58
2019-03-21T21:02:56.785Z,7.72
2019-03-21T21:05:27.531Z,7.71
2019-03-21T21:07:55.952Z,7.59
2019-03-21T21:10:24.836Z,7.42
2019-03-21T21:12:53.434Z,7.26
2019-03-21T21:15:21.817Z,7.34
2019-03-21T21:17:50.662Z,7.16
2019-03-21T21:20:20.005Z,7.30
2019-03-21T21:22:48.426Z,7.20
2019-03-21T21:25:16.868Z,7.29
2019-03-21T21:27:49.889Z,7.26
2019-03-21T21:30:20.303Z,7.15
2019-03-21T21:32:48.745Z,7.21
2019-03-21T21:35:17.202Z,7.29
2019-03-21T21:37:46.207Z,7.19
2019-03-21T21:40:16.467Z,7.13
2019-03-21T21:42:44.881Z,6.68
2019-03-21T21:45:17.947Z,6.44
2019-03-21T21:47:47.091Z,6.52
2019-03-21T21:50:16.644Z,6.72
2019-03-21T21:52:47.137Z,6.50
2019-03-21T21:55:16.395Z,6.71
2019-03-21T21:57:44.896Z,6.60
2019-03-21T22:00:18.828Z,6.91
2019-03-21T22:02:47.986Z,7.03
2019-03-21T22:05:17.652Z,6.85
2019-03-21T22:07:48.050Z,6.91
2019-03-21T22:10:16.672Z,6.85
2019-03-21T22:12:45.018Z,6.91
2019-03-21T22:15:14.549Z,6.83
2019-03-21T22:17:42.965Z,6.74
2019-03-21T22:20:14.150Z,6.19
2019-03-21T22:22:42.809Z,6.04
2019-03-21T22:25:11.790Z,6.13
2019-03-21T22:27:40.211Z,5.99
2019-03-21T22:30:11.792Z,6.20
2019-03-21T22:32:40.168Z,6.17
2019-03-21T22:35:08.889Z,6.38
2019-03-21T22:37:37.301Z,6.39
2019-03-21T22:40:08.869Z,6.40
2019-03-21T22:42:37.482Z,6.44
2019-03-21T22:45:11.090Z,6.43
2019-03-21T22:47:39.440Z,6.27
2019-03-21T22:50:10.661Z,6.32
2019-03-21T22:52:39.088Z,6.13
2019-03-21T22:55:07.616Z,6.23
2019-03-21T22:57:35.963Z,6.34
2019-03-21T23:00:07.548Z,6.15
2019-03-21T23:02:35.962Z,6.12
2019-03-21T23:05:05.749Z,5.97
2019-03-21T23:07:34.102Z,6.09
2019-03-21T23:10:02.856Z,6.38
2019-03-21T23:12:31.208Z,6.21
2019-03-21T23:14:59.588Z,6.14
2019-03-21T23:17:27.946Z,5.97
2019-03-21T23:19:56.322Z,5.93
2019-03-21T23:22:24.737Z,5.98
2019-03-21T23:24:53.117Z,5.88
2019-03-21T23:27:21.470Z,5.78
2019-03-21T23:29:49.848Z,5.58
2019-03-21T23:32:18.194Z,5.53
2019-03-21T23:34:46.570Z,5.19
2019-03-21T23:37:14.920Z,5.76
2019-03-21T23:39:43.292Z,5.73
2019-03-21T23:42:11.631Z,5.49
2019-03-21T23:44:40.016Z,5.60
2019-03-21T23:47:08.344Z,5.13
2019-03-21T23:49:36.717Z,5.36
2019-03-21T23:52:05.132Z,5.60
2019-03-21T23:54:33.517Z,5.65
2019-03-21T23:57:04.786Z,5.75
2019-03-21T23:59:32.061Z,5.77
